Time;durP1;ratioP1;P1;durP2;ratioP2;P2;SDS_P1;SDS_P2;PMS_P1;PMS_P2;Temp;Humidity;BMP_temperature;BMP_pressure;BME280_temperature;BME280_humidity;BME280_pressure;Samples;Min_cycle;Max_cycle;Signal;HPM_P1;HPM_P2
2022/11/28 00:01:06;;;;;;;;;;;;;;;;;;6072884;23;20327;-96
2022/11/28 00:03:32;;;;;;;;;;;;;;;;;;6073224;23;19919;-95
2022/11/28 00:05:58;;;;;;;;;;;;;;;;;;6073542;23;20220;-95
2022/11/28 00:08:24;;;;;;;;;;;;;;;;;;6071739;23;19917;-95
2022/11/28 00:10:50;;;;;;;;;;;;;;;;;;6072515;23;19917;-95
2022/11/28 00:13:16;;;;;;;;;;;;;;;;;;6072411;23;20287;-95
2022/11/28 00:15:42;;;;;;;;;;;;;;;;;;6070769;23;19996;-96
2022/11/28 00:18:09;;;;;;;;;;;;;;;;;;6073288;23;19954;-96
2022/11/28 00:20:35;;;;;;;;;;;;;;;;;;6072655;23;19924;-94
2022/11/28 00:23:01;;;;;;;;;;;;;;;;;;6072832;23;19913;-93
2022/11/28 00:25:27;;;;;;;;;;;;;;;;;;6072113;23;19913;-95
2022/11/28 00:27:52;;;;;;;;;;;;;;;;;;6071519;23;20041;-94
2022/11/28 00:30:18;;;;;;;;;;;;;;;;;;6071354;23;19920;-95
2022/11/28 00:32:44;;;;;;;;;;;;;;;;;;6071364;23;19922;-95
2022/11/28 00:35:10;;;;;;;;;;;;;;;;;;6071290;23;19987;-94
2022/11/28 00:37:36;;;;;;;;;;;;;;;;;;6071527;23;20056;-93
2022/11/28 00:40:02;;;;;;;;;;;;;;;;;;6071772;23;19918;-96
2022/11/28 00:42:28;;;;;;;;;;;;;;;;;;6097671;23;19935;-96
2022/11/28 00:44:54;;;;;;;;;;;;;;;;;;6073634;23;19920;-95
2022/11/28 00:47:20;;;;;;;;;;;;;;;;;;6073170;23;19913;-95
2022/11/28 00:49:46;;;;;;;;;;;;;;;;;;6072977;23;20327;-95
2022/11/28 00:52:11;;;;;;;;;;;;;;;;;;6073234;23;19916;-95
2022/11/28 00:54:37;;;;;;;;;;;;;;;;;;6072749;23;19917;-93
2022/11/28 00:57:03;;;;;;;;;;;;;;;;;;6072831;23;19919;-95
2022/11/28 00:59:29;;;;;;;;;;;;;;;;;;6072521;23;20292;-96
2022/11/28 01:01:55;;;;;;;;;;;;;;;;;;6073011;23;19941;-95
2022/11/28 01:04:21;;;;;;;;;;;;;;;;;;6072854;23;20350;-95
2022/11/28 01:06:47;;;;;;;;;;;;;;;;;;6073046;23;19913;-95
2022/11/28 01:09:13;;;;;;;;;;;;;;;;;;6072666;23;19917;-94
2022/11/28 01:11:39;;;;;;;;;;;;;;;;;;6072713;23;19920;-94
2022/11/28 01:14:05;;;;;;;;;;;;;;;;;;6072473;23;19917;-95
2022/11/28 01:16:31;;;;;;;;;;;;;;;;;;6072343;23;19913;-95
2022/11/28 01:18:56;;;;;;;;;;;;;;;;;;6072405;23;20379;-96
2022/11/28 01:21:22;;;;;;;;;;;;;;;;;;6072396;23;19914;-95
2022/11/28 01:23:48;;;;;;;;;;;;;;;;;;6072656;23;19917;-93
2022/11/28 01:26:15;;;;;;;;;;;;;;;;;;6072484;23;19920;-94
2022/11/28 01:28:40;;;;;;;;;;;;;;;;;;6072234;23;19936;-93
2022/11/28 01:31:06;;;;;;;;;;;;;;;;;;6072180;23;20339;-94
2022/11/28 01:33:32;;;;;;;;;;;;;;;;;;6072326;23;19921;-94
2022/11/28 01:35:58;;;;;;;;;;;;;;;;;;6072406;23;19913;-96
2022/11/28 01:38:24;;;;;;;;;;;;;;;;;;6072441;23;20251;-95
2022/11/28 01:40:50;;;;;;;;;;;;;;;;;;6072554;23;19920;-94
2022/11/28 01:43:16;;;;;;;;;;;;;;;;;;6072777;23;19952;-95
2022/11/28 01:45:42;;;;;;;;;;;;;;;;;;6072406;23;19928;-95
2022/11/28 01:48:08;;;;;;;;;;;;;;;;;;6073230;23;19920;-95
2022/11/28 01:50:34;;;;;;;;;;;;;;;;;;6072440;23;19913;-94
2022/11/28 01:52:59;;;;;;;;;;;;;;;;;;6072640;23;19980;-95
2022/11/28 01:55:25;;;;;;;;;;;;;;;;;;6072924;23;19913;-94
2022/11/28 01:57:51;;;;;;;;;;;;;;;;;;6072701;23;19917;-96
2022/11/28 02:00:17;;;;;;;;;;;;;;;;;;6072526;23;20335;-94
2022/11/28 02:02:43;;;;;;;;;;;;;;;;;;6072399;23;19921;-96
2022/11/28 02:05:09;;;;;;;;;;;;;;;;;;6072734;23;19920;-95
2022/11/28 02:07:36;;;;;;;;;;;;;;;;;;6072562;23;19920;-95
2022/11/28 02:10:02;;;;;;;;;;;;;;;;;;6072103;23;19925;-94
2022/11/28 02:12:28;;;;;;;;;;;;;;;;;;6072471;23;20335;-94
2022/11/28 02:14:54;;;;;;;;;;;;;;;;;;6072279;23;19921;-95
2022/11/28 02:17:20;;;;;;;;;;;;;;;;;;6072423;23;19971;-96
2022/11/28 02:19:45;;;;;;;;;;;;;;;;;;6072144;23;20031;-96
2022/11/28 02:22:11;;;;;;;;;;;;;;;;;;6073652;23;19995;-95
2022/11/28 02:24:37;;;;;;;;;;;;;;;;;;6072520;23;19955;-95
2022/11/28 02:27:03;;;;;;;;;;;;;;;;;;6073152;23;19917;-93
2022/11/28 02:29:29;;;;;;;;;;;;;;;;;;6096232;23;19957;-95
2022/11/28 02:31:55;;;;;;;;;;;;;;;;;;6072305;23;19920;-96
2022/11/28 02:34:21;;;;;;;;;;;;;;;;;;6072596;23;20342;-96
2022/11/28 02:36:47;;;;;;;;;;;;;;;;;;6072811;23;19913;-94
2022/11/28 02:39:13;;;;;;;;;;;;;;;;;;6074221;23;19929;-95
2022/11/28 02:41:39;;;;;;;;;;;;;;;;;;6074262;23;19923;-94
2022/11/28 02:44:05;;;;;;;;;;;;;;;;;;6098692;23;19919;-95
2022/11/28 02:46:31;;;;;;;;;;;;;;;;;;6075957;23;19913;-96
2022/11/28 02:48:56;;;;;;;;;;;;;;;;;;6074358;23;19913;-95
2022/11/28 02:51:22;;;;;;;;;;;;;;;;;;6074719;23;19924;-96
2022/11/28 02:53:48;;;;;;;;;;;;;;;;;;6074045;23;19928;-94
2022/11/28 02:56:14;;;;;;;;;;;;;;;;;;6073996;23;19917;-95
2022/11/28 02:58:40;;;;;;;;;;;;;;;;;;6098012;23;19920;-95
2022/11/28 03:01:06;;;;;;;;;;;;;;;;;;6073575;23;20251;-94
2022/11/28 03:03:32;;;;;;;;;;;;;;;;;;6074019;23;19992;-95
2022/11/28 03:05:58;;;;;;;;;;;;;;;;;;6073716;23;20327;-95
2022/11/28 03:08:24;;;;;;;;;;;;;;;;;;6073809;23;19920;-96
2022/11/28 03:10:50;;;;;;;;;;;;;;;;;;6073537;23;20040;-95
2022/11/28 03:13:16;;;;;;;;;;;;;;;;;;6097825;23;19917;-94
2022/11/28 03:15:42;;;;;;;;;;;;;;;;;;6073654;23;19917;-93
2022/11/28 03:18:07;;;;;;;;;;;;;;;;;;6073600;23;19913;-95
2022/11/28 03:20:33;;;;;;;;;;;;;;;;;;6073398;23;19913;-93
2022/11/28 03:22:59;;;;;;;;;;;;;;;;;;6074012;23;19921;-94
2022/11/28 03:25:25;;;;;;;;;;;;;;;;;;6073998;23;19965;-96
2022/11/28 03:27:51;;;;;;;;;;;;;;;;;;6073397;23;19964;-95
2022/11/28 03:30:18;;;;;;;;;;;;;;;;;;6073677;23;19980;-95
2022/11/28 03:32:44;;;;;;;;;;;;;;;;;;6073518;23;19913;-95
2022/11/28 03:35:10;;;;;;;;;;;;;;;;;;6074147;23;19989;-94
2022/11/28 03:37:36;;;;;;;;;;;;;;;;;;6073538;23;20328;-94
2022/11/28 03:40:02;;;;;;;;;;;;;;;;;;6073790;23;19913;-95
2022/11/28 03:42:28;;;;;;;;;;;;;;;;;;6075732;23;19917;-96
2022/11/28 03:44:54;;;;;;;;;;;;;;;;;;6074547;23;19977;-96
2022/11/28 03:47:20;;;;;;;;;;;;;;;;;;6074095;23;20146;-96
2022/11/28 03:49:46;;;;;;;;;;;;;;;;;;6073887;23;19960;-96
2022/11/28 03:52:11;;;;;;;;;;;;;;;;;;6074169;23;19913;-95
2022/11/28 03:54:37;;;;;;;;;;;;;;;;;;6074388;23;19917;-96
2022/11/28 03:57:05;;;;;;;;;;;;;;;;;;6074259;23;19996;-96
2022/11/28 03:59:31;;;;;;;;;;;;;;;;;;6075544;23;19920;-94
2022/11/28 04:01:56;;;;;;;;;;;;;;;;;;6075137;23;19913;-96
2022/11/28 04:04:22;;;;;;;;;;;;;;;;;;6074616;23;19917;-94
2022/11/28 04:06:48;;;;;;;;;;;;;;;;;;6073263;23;20407;-96
2022/11/28 04:09:14;;;;;;;;;;;;;;;;;;6082430;23;19952;-96
2022/11/28 04:11:40;;;;;;;;;;;;;;;;;;6074943;23;19976;-96
2022/11/28 04:14:06;;;;;;;;;;;;;;;;;;6073738;23;19924;-96
2022/11/28 04:16:32;;;;;;;;;;;;;;;;;;6078146;23;19917;-96
2022/11/28 04:19:02;;;;;;;;;;;;;;;;;;6100712;23;19914;-96
2022/11/28 04:21:28;;;;;;;;;;;;;;;;;;6077221;23;19940;-96
2022/11/28 04:24:00;;;;;;;;;;;;;;;;;;6078742;23;19914;-96
2022/11/28 04:26:26;;;;;;;;;;;;;;;;;;6077888;23;19959;-96
2022/11/28 04:28:55;;;;;;;;;;;;;;;;;;6076518;23;19913;-96
2022/11/28 04:31:21;;;;;;;;;;;;;;;;;;6081509;23;19943;-96
2022/11/28 04:33:47;;;;;;;;;;;;;;;;;;6078296;23;19917;-96
2022/11/28 04:36:13;;;;;;;;;;;;;;;;;;6074799;23;19920;-96
2022/11/28 04:38:39;;;;;;;;;;;;;;;;;;6075850;23;19920;-95
2022/11/28 04:41:05;;;;;;;;;;;;;;;;;;6073740;23;19920;-96
2022/11/28 04:43:31;;;;;;;;;;;;;;;;;;6073992;23;19920;-96
2022/11/28 04:45:57;;;;;;;;;;;;;;;;;;6078360;23;19913;-96
2022/11/28 04:48:22;;;;;;;;;;;;;;;;;;6077376;23;19924;-96
2022/11/28 04:50:48;;;;;;;;;;;;;;;;;;6076729;23;19917;-96
2022/11/28 04:53:14;;;;;;;;;;;;;;;;;;6073426;23;19918;-96
2022/11/28 04:55:40;;;;;;;;;;;;;;;;;;6074442;23;19973;-95
2022/11/28 04:58:09;;;;;;;;;;;;;;;;;;6076194;23;19964;-95
2022/11/28 05:00:35;;;;;;;;;;;;;;;;;;6077738;23;19913;-96
2022/11/28 05:03:01;;;;;;;;;;;;;;;;;;6079664;23;19918;-96
2022/11/28 05:05:28;;;;;;;;;;;;;;;;;;6079008;23;19913;-96
2022/11/28 05:08:00;;;;;;;;;;;;;;;;;;6078190;23;19913;-96
2022/11/28 05:10:27;;;;;;;;;;;;;;;;;;6074508;23;19919;-95
2022/11/28 05:12:53;;;;;;;;;;;;;;;;;;6078588;23;19941;-96
2022/11/28 05:15:25;;;;;;;;;;;;;;;;;;6104564;23;19913;-96
2022/11/28 05:17:55;;;;;;;;;;;;;;;;;;6110834;23;19937;-94
2022/11/28 05:20:24;;;;;;;;;;;;;;;;;;6086639;23;19941;-96
2022/11/28 05:22:56;;;;;;;;;;;;;;;;;;6111200;23;19937;-96
2022/11/28 05:25:22;;;;;;;;;;;;;;;;;;6082672;23;19921;-96
2022/11/28 05:27:48;;;;;;;;;;;;;;;;;;6078466;23;19988;-96
2022/11/28 05:30:14;;;;;;;;;;;;;;;;;;6074960;23;19916;-96
2022/11/28 05:32:43;;;;;;;;;;;;;;;;;;6084829;23;19913;-95
2022/11/28 05:35:09;;;;;;;;;;;;;;;;;;6085099;23;19924;-95
2022/11/28 05:37:35;;;;;;;;;;;;;;;;;;6087889;23;19987;-96
2022/11/28 05:40:01;;;;;;;;;;;;;;;;;;6081465;23;19961;-96
2022/11/28 05:42:29;;;;;;;;;;;;;;;;;;6079212;23;19920;-96
2022/11/28 05:44:56;;;;;;;;;;;;;;;;;;6079044;23;19920;-96
2022/11/28 05:47:24;;;;;;;;;;;;;;;;;;6078738;23;19941;-96
2022/11/28 05:49:50;;;;;;;;;;;;;;;;;;6080483;23;19913;-96
2022/11/28 05:52:16;;;;;;;;;;;;;;;;;;6080612;23;19953;-95
2022/11/28 05:54:42;;;;;;;;;;;;;;;;;;6084652;23;19924;-95
2022/11/28 05:57:08;;;;;;;;;;;;;;;;;;6079550;23;19921;-96
2022/11/28 05:59:34;;;;;;;;;;;;;;;;;;6076131;23;19917;-95
2022/11/28 06:02:00;;;;;;;;;;;;;;;;;;6077244;23;19913;-95
2022/11/28 06:04:25;;;;;;;;;;;;;;;;;;6074966;23;20275;-96
2022/11/28 06:06:51;;;;;;;;;;;;;;;;;;6076303;23;20209;-96
2022/11/28 06:09:17;;;;;;;;;;;;;;;;;;6077700;23;19951;-96
2022/11/28 06:11:43;;;;;;;;;;;;;;;;;;6083597;23;19920;-96
2022/11/28 06:14:12;;;;;;;;;;;;;;;;;;6080454;23;19972;-96
2022/11/28 06:16:38;;;;;;;;;;;;;;;;;;6079842;23;19937;-94
2022/11/28 06:19:04;;;;;;;;;;;;;;;;;;6078269;23;19923;-96
2022/11/28 06:21:30;;;;;;;;;;;;;;;;;;6081284;23;19979;-96
2022/11/28 06:23:56;;;;;;;;;;;;;;;;;;6084751;23;20366;-95
2022/11/28 06:26:22;;;;;;;;;;;;;;;;;;6082629;23;19917;-96
2022/11/28 06:28:48;;;;;;;;;;;;;;;;;;6080479;23;19990;-95
2022/11/28 06:31:14;;;;;;;;;;;;;;;;;;6101002;23;19913;-96
2022/11/28 06:33:40;;;;;;;;;;;;;;;;;;6076909;23;19917;-96
2022/11/28 06:36:06;;;;;;;;;;;;;;;;;;6080837;23;19942;-96
2022/11/28 06:38:32;;;;;;;;;;;;;;;;;;6075575;23;19917;-96
2022/11/28 06:40:58;;;;;;;;;;;;;;;;;;6099970;23;19913;-96
2022/11/28 06:43:24;;;;;;;;;;;;;;;;;;6076211;23;19968;-96
2022/11/28 06:45:50;;;;;;;;;;;;;;;;;;6077623;23;19913;-96
2022/11/28 06:48:16;;;;;;;;;;;;;;;;;;6077076;23;19955;-96
2022/11/28 06:50:41;;;;;;;;;;;;;;;;;;6078284;23;19920;-96
2022/11/28 06:53:07;;;;;;;;;;;;;;;;;;6076163;23;19928;-96
2022/11/28 06:55:34;;;;;;;;;;;;;;;;;;6102684;23;19913;-96
2022/11/28 06:58:00;;;;;;;;;;;;;;;;;;6077473;23;19925;-96
2022/11/28 07:00:26;;;;;;;;;;;;;;;;;;6077430;23;20246;-96
2022/11/28 07:02:52;;;;;;;;;;;;;;;;;;6077930;23;20112;-96
2022/11/28 07:05:20;;;;;;;;;;;;;;;;;;6073027;23;19920;-96
2022/11/28 07:07:46;;;;;;;;;;;;;;;;;;6075783;23;19963;-96
2022/11/28 07:10:12;;;;;;;;;;;;;;;;;;6075453;23;20279;-96
2022/11/28 07:12:38;;;;;;;;;;;;;;;;;;6079198;23;19916;-96
2022/11/28 07:15:04;;;;;;;;;;;;;;;;;;6078009;23;19997;-96
2022/11/28 07:17:30;;;;;;;;;;;;;;;;;;6074014;23;19913;-95
2022/11/28 07:19:59;;;;;;;;;;;;;;;;;;6104673;23;20235;-96
2022/11/28 07:22:25;;;;;;;;;;;;;;;;;;6077268;23;19952;-96
2022/11/28 07:24:51;;;;;;;;;;;;;;;;;;6078189;23;19917;-96
2022/11/28 07:27:17;;;;;;;;;;;;;;;;;;6081914;23;19913;-96
2022/11/28 07:29:42;;;;;;;;;;;;;;;;;;6087257;23;19917;-96
2022/11/28 07:32:08;;;;;;;;;;;;;;;;;;6106626;23;19948;-96
2022/11/28 07:34:34;;;;;;;;;;;;;;;;;;6077073;23;19917;-96
2022/11/28 07:37:00;;;;;;;;;;;;;;;;;;6077140;23;19942;-96
2022/11/28 07:39:26;;;;;;;;;;;;;;;;;;6077367;23;19914;-96
2022/11/28 07:41:52;;;;;;;;;;;;;;;;;;6076040;23;19956;-95
2022/11/28 07:44:18;;;;;;;;;;;;;;;;;;6075597;23;19914;-94
2022/11/28 07:46:44;;;;;;;;;;;;;;;;;;6077202;23;19968;-96
2022/11/28 07:49:10;;;;;;;;;;;;;;;;;;6076069;23;19913;-96
2022/11/28 07:51:36;;;;;;;;;;;;;;;;;;6076519;23;20339;-96
2022/11/28 07:54:02;;;;;;;;;;;;;;;;;;6073792;23;19917;-96
2022/11/28 07:56:28;;;;;;;;;;;;;;;;;;6074556;23;20331;-96
2022/11/28 07:58:54;;;;;;;;;;;;;;;;;;6077290;23;19987;-96
2022/11/28 08:01:20;;;;;;;;;;;;;;;;;;6075375;23;19917;-96
2022/11/28 08:03:46;;;;;;;;;;;;;;;;;;6076316;23;19937;-96
2022/11/28 08:06:12;;;;;;;;;;;;;;;;;;6077749;23;20316;-96
2022/11/28 08:08:38;;;;;;;;;;;;;;;;;;6079565;23;20256;-96
2022/11/28 08:11:04;;;;;;;;;;;;;;;;;;6080256;23;19913;-96
2022/11/28 08:13:30;;;;;;;;;;;;;;;;;;6076230;23;19923;-96
2022/11/28 08:15:56;;;;;;;;;;;;;;;;;;6075929;23;20287;-96
2022/11/28 08:18:22;;;;;;;;;;;;;;;;;;6078646;23;19913;-95
2022/11/28 08:20:48;;;;;;;;;;;;;;;;;;6100945;23;19913;-96
2022/11/28 08:23:17;;;;;;;;;;;;;;;;;;6079492;23;19917;-96
2022/11/28 08:25:43;;;;;;;;;;;;;;;;;;6074151;23;19913;-96
2022/11/28 08:28:09;;;;;;;;;;;;;;;;;;6078333;23;19917;-96
2022/11/28 08:30:35;;;;;;;;;;;;;;;;;;6075897;23;19992;-96
2022/11/28 08:33:03;;;;;;;;;;;;;;;;;;6085856;23;19913;-96
2022/11/28 08:35:30;;;;;;;;;;;;;;;;;;6082882;23;19920;-96
2022/11/28 08:37:57;;;;;;;;;;;;;;;;;;6088362;23;19913;-96
2022/11/28 08:40:23;;;;;;;;;;;;;;;;;;6085967;23;19920;-96
2022/11/28 08:42:49;;;;;;;;;;;;;;;;;;6084017;23;19932;-94
2022/11/28 08:45:16;;;;;;;;;;;;;;;;;;6084087;23;19913;-96
2022/11/28 08:47:46;;;;;;;;;;;;;;;;;;6104895;23;19920;-96
2022/11/28 08:50:12;;;;;;;;;;;;;;;;;;6083532;23;19913;-96
2022/11/28 08:52:38;;;;;;;;;;;;;;;;;;6084063;23;19917;-96
2022/11/28 08:55:04;;;;;;;;;;;;;;;;;;6084850;23;19917;-96
2022/11/28 08:57:30;;;;;;;;;;;;;;;;;;6082963;23;19913;-96
2022/11/28 08:59:56;;;;;;;;;;;;;;;;;;6086453;23;19913;-96
2022/11/28 09:02:25;;;;;;;;;;;;;;;;;;6109578;23;20224;-94
2022/11/28 09:04:51;;;;;;;;;;;;;;;;;;6086692;23;20386;-96
2022/11/28 09:07:17;;;;;;;;;;;;;;;;;;6105872;23;19913;-94
2022/11/28 09:09:43;;;;;;;;;;;;;;;;;;6084483;23;19917;-95
2022/11/28 09:12:10;;;;;;;;;;;;;;;;;;6094868;23;19932;-95
2022/11/28 09:14:38;;;;;;;;;;;;;;;;;;6084079;23;19921;-96
2022/11/28 09:17:04;;;;;;;;;;;;;;;;;;6108158;23;20327;-95
2022/11/28 09:19:30;;;;;;;;;;;;;;;;;;6083220;23;19920;-96
2022/11/28 09:21:56;;;;;;;;;;;;;;;;;;6080189;23;19944;-96
2022/11/28 09:24:22;;;;;;;;;;;;;;;;;;6082581;23;19917;-96
2022/11/28 09:26:48;;;;;;;;;;;;;;;;;;6086317;23;19913;-96
2022/11/28 09:29:14;;;;;;;;;;;;;;;;;;6086446;23;19917;-96
2022/11/28 09:31:41;;;;;;;;;;;;;;;;;;6080005;23;19948;-96
2022/11/28 09:34:08;;;;;;;;;;;;;;;;;;6083938;23;20323;-96
2022/11/28 09:36:34;;;;;;;;;;;;;;;;;;6081515;23;20335;-95
2022/11/28 09:39:00;;;;;;;;;;;;;;;;;;6079969;23;20182;-95
2022/11/28 09:41:26;;;;;;;;;;;;;;;;;;6077753;23;19913;-95
2022/11/28 09:43:52;;;;;;;;;;;;;;;;;;6077957;23;19920;-95
2022/11/28 09:46:18;;;;;;;;;;;;;;;;;;6075427;23;19913;-94
2022/11/28 09:48:44;;;;;;;;;;;;;;;;;;6080724;23;19917;-95
2022/11/28 09:51:13;;;;;;;;;;;;;;;;;;6103978;23;19917;-96
2022/11/28 09:53:39;;;;;;;;;;;;;;;;;;6075536;23;19913;-96
2022/11/28 09:56:05;;;;;;;;;;;;;;;;;;6077969;23;19924;-96
2022/11/28 09:58:36;;;;;;;;;;;;;;;;;;6076396;23;19936;-96
2022/11/28 10:01:06;;;;;;;;;;;;;;;;;;6104496;23;19913;-96
2022/11/28 10:03:32;;;;;;;;;;;;;;;;;;6077289;23;19963;-96
2022/11/28 10:06:00;;;;;;;;;;;;;;;;;;6102422;23;19944;-96
2022/11/28 10:08:26;;;;;;;;;;;;;;;;;;6072594;23;19913;-94
2022/11/28 10:10:53;;;;;;;;;;;;;;;;;;6073719;23;19919;-95
2022/11/28 10:13:19;;;;;;;;;;;;;;;;;;6077509;23;19917;-94
2022/11/28 10:15:45;;;;;;;;;;;;;;;;;;6074686;23;19917;-94
2022/11/28 10:18:11;;;;;;;;;;;;;;;;;;6071308;23;20327;-93
2022/11/28 10:20:37;;;;;;;;;;;;;;;;;;6069941;23;19917;-96
2022/11/28 10:23:03;;;;;;;;;;;;;;;;;;6071681;23;19972;-95
2022/11/28 10:25:29;;;;;;;;;;;;;;;;;;6070554;23;19923;-95
2022/11/28 10:27:56;;;;;;;;;;;;;;;;;;6077812;23;19945;-89
2022/11/28 10:30:22;;;;;;;;;;;;;;;;;;6071811;23;19913;-95
2022/11/28 10:35:27;;;;;;;;;;;;;;;;;;6093406;23;19917;-93
2022/11/28 10:40:28;;;;;;;;;;;;;;;;;;6135778;23;19964;-96
2022/11/28 10:43:01;;;;;;;;;;;;;;;;;;6140110;23;19905;-95
2022/11/28 10:48:09;;;;;;;;;;;;;;;;;;6127014;23;19916;-96
2022/11/28 10:50:35;;;;;;;;;;;;;;;;;;6107102;23;20173;-96
2022/11/28 10:53:02;;;;;;;;;;;;;;;;;;6105428;23;19913;-96
2022/11/28 10:58:04;;;;;;;;;;;;;;;;;;6141075;23;19953;-94
2022/11/28 11:10:53;;;;;;;;;;;;;;;;;;6142130;23;20369;-91
2022/11/28 11:13:22;;;;;;;;;;;;;;;;;;6108881;23;19923;-96
2022/11/28 11:15:48;;;;;;;;;;;;;;;;;;6102715;23;19913;-94
2022/11/28 11:18:14;;;;;;;;;;;;;;;;;;6102086;23;19969;-94
2022/11/28 11:20:40;;;;;;;;;;;;;;;;;;6102252;23;19923;-93
2022/11/28 11:23:06;;;;;;;;;;;;;;;;;;6102782;23;19917;-93
2022/11/28 11:25:32;;;;;;;;;;;;;;;;;;6100049;23;19923;-96
2022/11/28 11:28:01;;;;;;;;;;;;;;;;;;6100785;23;20090;-96
2022/11/28 11:30:27;;;;;;;;;;;;;;;;;;6104590;23;20296;-95
2022/11/28 11:32:53;;;;;;;;;;;;;;;;;;6102871;23;19920;-96
2022/11/28 11:35:19;;;;;;;;;;;;;;;;;;6099222;23;20343;-94
2022/11/28 11:37:45;;;;;;;;;;;;;;;;;;6104321;23;19997;-96
2022/11/28 12:03:33;;;;;;;;;;;;;;;;;;6105554;23;19917;-96
2022/11/28 12:05:59;;;;;;;;;;;;;;;;;;6087171;23;20178;-93
2022/11/28 12:08:42;;;;;;;;;;;;;;;;;;6123070;23;19912;-94
2022/11/28 13:13:34;;;;;;;;;;;;;;;;;;6174034;23;20381;-93
2022/11/28 13:16:06;;;;;;;;;;;;;;;;;;6138032;23;19961;-93
2022/11/28 13:18:39;;;;;;;;;;;;;;;;;;6149707;23;19917;-96
2022/11/28 13:21:06;;;;;;;;;;;;;;;;;;6149101;23;19939;-95
2022/11/28 13:23:59;;;;;;;;;;;;;;;;;;6147315;23;19916;-93
2022/11/28 13:27:04;;;;;;;;;;;;;;;;;;6131180;23;19982;-92
2022/11/28 13:30:12;;;;;;;;;;;;;;;;;;6174378;23;19995;-94
2022/11/28 13:38:10;;;;;;;;;;;;;;;;;;6138461;23;19917;-95
2022/11/28 13:45:59;;;;;;;;;;;;;;;;;;6089761;23;20303;-96
2022/11/28 13:48:28;;;;;;;;;;;;;;;;;;6095531;23;19919;-92
2022/11/28 13:56:12;;;;;;;;;;;;;;;;;;6178518;23;19916;-96
2022/11/28 13:58:44;;;;;;;;;;;;;;;;;;6142175;23;20380;-96
2022/11/28 14:01:14;;;;;;;;;;;;;;;;;;6151530;23;19913;-96
2022/11/28 14:03:42;;;;;;;;;;;;;;;;;;6127637;23;19916;-96
2022/11/28 15:03:30;;;;;;;;;;;;;;;;;;6168107;23;19932;-95
2022/11/28 15:05:59;;;;;;;;;;;;;;;;;;6141979;23;19916;-96
2022/11/28 15:08:25;;;;;;;;;;;;;;;;;;6118323;23;19963;-96
2022/11/28 15:10:54;;;;;;;;;;;;;;;;;;6123508;23;19919;-96
2022/11/28 15:13:23;;;;;;;;;;;;;;;;;;6150299;23;19923;-95
2022/11/28 15:15:50;;;;;;;;;;;;;;;;;;6150684;23;19917;-96
2022/11/28 15:18:20;;;;;;;;;;;;;;;;;;6126762;23;19912;-96
2022/11/28 15:20:52;;;;;;;;;;;;;;;;;;6118919;23;19916;-94
2022/11/28 15:23:18;;;;;;;;;;;;;;;;;;6125196;23;20319;-96
2022/11/28 15:25:49;;;;;;;;;;;;;;;;;;6150365;23;19912;-96
2022/11/28 15:28:16;;;;;;;;;;;;;;;;;;6148463;23;19912;-95
2022/11/28 15:30:45;;;;;;;;;;;;;;;;;;6150928;23;19919;-96
2022/11/28 15:33:17;;;;;;;;;;;;;;;;;;6151329;23;19912;-96
2022/11/28 15:35:44;;;;;;;;;;;;;;;;;;6128435;23;19961;-95
2022/11/28 15:38:13;;;;;;;;;;;;;;;;;;6131582;23;19912;-95
2022/11/28 15:40:51;;;;;;;;;;;;;;;;;;6130807;23;19947;-92
2022/11/28 15:43:57;;;;;;;;;;;;;;;;;;6180034;23;19923;-96
2022/11/28 15:46:40;;;;;;;;;;;;;;;;;;6155149;23;19912;-96
2022/11/28 15:49:10;;;;;;;;;;;;;;;;;;6132228;23;19924;-96
2022/11/28 15:51:36;;;;;;;;;;;;;;;;;;6130251;23;19912;-96
2022/11/28 15:56:57;;;;;;;;;;;;;;;;;;6156492;23;19900;-95
2022/11/28 15:59:40;;;;;;;;;;;;;;;;;;6177226;23;19924;-96
2022/11/28 16:02:09;;;;;;;;;;;;;;;;;;6127308;23;19912;-96
2022/11/28 16:04:35;;;;;;;;;;;;;;;;;;6131881;23;19913;-95
2022/11/28 16:07:08;;;;;;;;;;;;;;;;;;6103905;23;19912;-96
2022/11/28 16:09:34;;;;;;;;;;;;;;;;;;6127197;23;19919;-96
2022/11/28 16:12:14;;;;;;;;;;;;;;;;;;6174007;23;19916;-96
2022/11/28 16:14:42;;;;;;;;;;;;;;;;;;6146918;23;19921;-96
2022/11/28 16:17:10;;;;;;;;;;;;;;;;;;6122426;23;19924;-92
2022/11/28 16:20:06;;;;;;;;;;;;;;;;;;6172257;23;19953;-94
2022/11/28 16:22:32;;;;;;;;;;;;;;;;;;6125862;23;19949;-94
2022/11/28 16:25:02;;;;;;;;;;;;;;;;;;6145039;23;19912;-96
2022/11/28 16:27:29;;;;;;;;;;;;;;;;;;6111177;23;20235;-96
2022/11/28 16:29:55;;;;;;;;;;;;;;;;;;6117390;23;19946;-96
2022/11/28 16:32:25;;;;;;;;;;;;;;;;;;6146929;23;19928;-96
2022/11/28 16:47:00;;;;;;;;;;;;;;;;;;6113093;23;19917;-96
2022/11/28 16:49:33;;;;;;;;;;;;;;;;;;6107071;23;19917;-96
2022/11/28 16:51:59;;;;;;;;;;;;;;;;;;6086726;23;19965;-96
2022/11/28 16:54:30;;;;;;;;;;;;;;;;;;6111927;23;19917;-95
2022/11/28 16:56:56;;;;;;;;;;;;;;;;;;6086265;23;19917;-96
2022/11/28 16:59:28;;;;;;;;;;;;;;;;;;6110018;23;19924;-96
2022/11/28 17:01:54;;;;;;;;;;;;;;;;;;6086522;23;20328;-96
2022/11/28 17:04:20;;;;;;;;;;;;;;;;;;6085070;23;19941;-95
2022/11/28 17:06:47;;;;;;;;;;;;;;;;;;6114631;23;19914;-96
2022/11/28 17:09:13;;;;;;;;;;;;;;;;;;6082014;23;19948;-96
2022/11/28 17:11:39;;;;;;;;;;;;;;;;;;6080060;23;19917;-96
2022/11/28 17:14:06;;;;;;;;;;;;;;;;;;6080432;23;19913;-96
2022/11/28 17:16:32;;;;;;;;;;;;;;;;;;6110616;23;19927;-93
2022/11/28 17:19:02;;;;;;;;;;;;;;;;;;6118249;23;19920;-95
2022/11/28 17:21:32;;;;;;;;;;;;;;;;;;6116704;23;19924;-96
2022/11/28 17:24:03;;;;;;;;;;;;;;;;;;6119841;23;19921;-96
2022/11/28 17:26:30;;;;;;;;;;;;;;;;;;6085662;23;19937;-94
2022/11/28 21:25:12;;;;;;;;;;;;;;;;;;6120143;23;19925;-96
2022/11/28 21:30:18;;;;;;;;;;;;;;;;;;6110721;23;19925;-95
2022/11/28 21:32:47;;;;;;;;;;;;;;;;;;6092544;23;19913;-96
2022/11/28 21:35:31;;;;;;;;;;;;;;;;;;6121924;23;19928;-95
2022/11/28 21:38:06;;;;;;;;;;;;;;;;;;6117848;23;19913;-96
2022/11/28 21:40:34;;;;;;;;;;;;;;;;;;6095455;23;19945;-95
2022/11/28 21:43:13;;;;;;;;;;;;;;;;;;6091061;23;19920;-96
2022/11/28 21:45:42;;;;;;;;;;;;;;;;;;6110705;23;19913;-96
2022/11/28 21:48:11;;;;;;;;;;;;;;;;;;6090916;23;19952;-93
2022/11/28 21:56:16;;;;;;;;;;;;;;;;;;6094999;23;19917;-96
2022/11/28 21:58:42;;;;;;;;;;;;;;;;;;6097688;23;19920;-96
2022/11/28 22:01:11;;;;;;;;;;;;;;;;;;6099815;23;19913;-96
2022/11/28 22:03:37;;;;;;;;;;;;;;;;;;6097024;23;19997;-96
2022/11/28 22:06:03;;;;;;;;;;;;;;;;;;6107247;23;19912;-94
2022/11/28 22:08:29;;;;;;;;;;;;;;;;;;6106269;23;20039;-96
2022/11/28 22:11:03;;;;;;;;;;;;;;;;;;6113554;23;19913;-92
2022/11/28 22:13:35;;;;;;;;;;;;;;;;;;6113443;23;19917;-93
2022/11/28 22:29:09;;;;;;;;;;;;;;;;;;6123835;23;19916;-95
2022/11/28 22:31:35;;;;;;;;;;;;;;;;;;6082600;23;1559831;-94
2022/11/28 22:34:01;;;;;;;;;;;;;;;;;;6151586;23;19915;-94
2022/11/28 23:46:38;;;;;;;;;;;;;;;;;;6122687;23;19917;-95
2022/11/28 23:49:10;;;;;;;;;;;;;;;;;;6116078;23;19924;-93
2022/11/28 23:59:42;;;;;;;;;;;;;;;;;;6174321;23;19949;-96
